Time;durP1;ratioP1;P1;durP2;ratioP2;P2;SDS_P1;SDS_P2;PMS_P1;PMS_P2;Temp;Humidity;BMP_temperature;BMP_pressure;BME280_temperature;BME280_humidity;BME280_pressure;Samples;Min_cycle;Max_cycle;Signal;HPM_P1;HPM_P2
2022/11/28 00:01:40;;;;;;;9.15;8.45;;;;;;;;;;5075174;28;20548;-74
2022/11/28 00:04:06;;;;;;;9.15;8.40;;;;;;;;;;5060395;28;20039;-74
2022/11/28 00:06:34;;;;;;;9.90;8.75;;;;;;;;;;5056259;28;20501;-75
2022/11/28 00:09:00;;;;;;;5.38;4.93;;;;;;;;;;5071804;28;20033;-74
2022/11/28 00:11:29;;;;;;;8.95;8.10;;;;;;;;;;5071836;28;20040;-73
2022/11/28 00:13:55;;;;;;;6.10;5.57;;;;;;;;;;5072257;28;20051;-74
2022/11/28 00:16:22;;;;;;;7.88;7.20;;;;;;;;;;5054077;28;20028;-74
2022/11/28 00:18:48;;;;;;;7.10;6.43;;;;;;;;;;5072015;28;20036;-74
2022/11/28 00:21:14;;;;;;;6.68;6.18;;;;;;;;;;5071540;28;20475;-75
2022/11/28 00:23:40;;;;;;;9.52;8.63;;;;;;;;;;5053992;28;20025;-75
2022/11/28 00:26:07;;;;;;;9.13;8.25;;;;;;;;;;5037591;28;20060;-75
2022/11/28 00:28:33;;;;;;;6.47;5.97;;;;;;;;;;5054689;28;20041;-75
2022/11/28 00:30:59;;;;;;;8.10;7.40;;;;;;;;;;5069289;28;20123;-74
2022/11/28 00:33:25;;;;;;;8.80;8.00;;;;;;;;;;5051072;28;20048;-73
2022/11/28 00:35:56;;;;;;;6.07;5.50;;;;;;;;;;5051460;28;20041;-74
2022/11/28 00:38:23;;;;;;;7.18;6.60;;;;;;;;;;5033591;28;20409;-74
2022/11/28 00:40:56;;;;;;;8.77;7.53;;;;;;;;;;5033533;28;20039;-75
2022/11/28 00:43:23;;;;;;;7.32;6.80;;;;;;;;;;5033051;28;20053;-75
2022/11/28 00:45:49;;;;;;;9.07;8.18;;;;;;;;;;5033799;28;20122;-74
2022/11/28 00:48:15;;;;;;;8.88;7.50;;;;;;;;;;5051324;28;20065;-74
2022/11/28 00:50:43;;;;;;;7.38;6.68;;;;;;;;;;5033629;28;20130;-74
2022/11/28 00:53:09;;;;;;;9.82;8.07;;;;;;;;;;5050892;28;20110;-74
2022/11/28 00:55:37;;;;;;;10.57;9.50;;;;;;;;;;5033023;28;20492;-74
2022/11/28 00:58:03;;;;;;;10.27;7.13;;;;;;;;;;5050980;28;20045;-74
2022/11/28 01:00:29;;;;;;;6.05;5.53;;;;;;;;;;5050739;28;20087;-74
2022/11/28 01:02:55;;;;;;;8.70;7.90;;;;;;;;;;5033060;28;20045;-75
2022/11/28 01:05:21;;;;;;;7.28;6.68;;;;;;;;;;5046527;28;20035;-73
2022/11/28 01:07:47;;;;;;;17.80;11.00;;;;;;;;;;5050525;28;20390;-74
2022/11/28 01:10:13;;;;;;;13.40;11.93;;;;;;;;;;5050223;28;20123;-74
2022/11/28 01:12:39;;;;;;;15.05;10.57;;;;;;;;;;5049228;28;20039;-74
2022/11/28 01:15:06;;;;;;;16.90;12.52;;;;;;;;;;5050281;28;20451;-74
2022/11/28 01:17:32;;;;;;;8.85;7.07;;;;;;;;;;5048595;28;20036;-74
2022/11/28 01:19:58;;;;;;;9.70;8.73;;;;;;;;;;5050559;28;20095;-75
2022/11/28 01:22:24;;;;;;;16.85;11.18;;;;;;;;;;5049331;28;20048;-74
2022/11/28 01:24:49;;;;;;;11.43;8.93;;;;;;;;;;5050075;28;20032;-74
2022/11/28 01:27:16;;;;;;;11.05;8.07;;;;;;;;;;5050006;28;20041;-75
2022/11/28 01:29:42;;;;;;;26.48;16.10;;;;;;;;;;5050254;28;20053;-74
2022/11/28 01:32:07;;;;;;;14.77;8.50;;;;;;;;;;5049970;28;20079;-74
2022/11/28 01:34:33;;;;;;;21.33;13.77;;;;;;;;;;5049591;28;20047;-74
2022/11/28 01:36:59;;;;;;;15.05;10.00;;;;;;;;;;5050101;28;20041;-74
2022/11/28 01:39:25;;;;;;;20.85;12.52;;;;;;;;;;5049652;28;20029;-74
2022/11/28 01:41:51;;;;;;;18.23;13.13;;;;;;;;;;5048347;28;20497;-74
2022/11/28 01:44:19;;;;;;;15.32;11.75;;;;;;;;;;5049445;28;20056;-75
2022/11/28 01:46:45;;;;;;;9.88;7.60;;;;;;;;;;5048587;28;20048;-75
2022/11/28 01:49:13;;;;;;;23.50;16.08;;;;;;;;;;5048188;28;20515;-74
2022/11/28 01:51:39;;;;;;;11.95;9.80;;;;;;;;;;5031909;28;20044;-74
2022/11/28 01:54:05;;;;;;;15.88;10.25;;;;;;;;;;5049373;28;20040;-75
2022/11/28 01:56:34;;;;;;;24.20;15.98;;;;;;;;;;5049097;28;20040;-74
2022/11/28 01:59:01;;;;;;;14.65;9.10;;;;;;;;;;5047877;28;20090;-74
2022/11/28 02:01:27;;;;;;;18.40;10.55;;;;;;;;;;5047797;28;20075;-75
2022/11/28 02:03:53;;;;;;;10.15;7.25;;;;;;;;;;5049045;28;20489;-74
2022/11/28 02:06:20;;;;;;;14.50;8.75;;;;;;;;;;5047865;28;20127;-75
2022/11/28 02:08:48;;;;;;;12.30;10.20;;;;;;;;;;5047952;28;20052;-73
2022/11/28 02:11:23;;;;;;;10.43;9.25;;;;;;;;;;5047978;28;20567;-74
2022/11/28 02:13:59;;;;;;;13.38;11.57;;;;;;;;;;5047797;28;20037;-74
2022/11/28 02:16:52;;;;;;;22.88;16.25;;;;;;;;;;5034596;28;20053;-74
2022/11/28 02:19:41;;;;;;;16.40;12.23;;;;;;;;;;5048805;28;20060;-75
2022/11/28 02:22:18;;;;;;;17.10;12.45;;;;;;;;;;5014551;28;20049;-75
2022/11/28 02:25:12;;;;;;;15.75;11.55;;;;;;;;;;5047669;28;20489;-75
2022/11/28 02:28:14;;;;;;;18.77;14.43;;;;;;;;;;5046504;28;20131;-75
2022/11/28 02:30:43;;;;;;;16.50;11.70;;;;;;;;;;4987198;28;20080;-75
2022/11/28 02:33:28;;;;;;;15.48;10.25;;;;;;;;;;5038095;28;20048;-74
2022/11/28 02:36:11;;;;;;;23.05;15.88;;;;;;;;;;5054480;28;20037;-74
2022/11/28 02:38:40;;;;;;;15.75;9.18;;;;;;;;;;5054037;28;20032;-75
2022/11/28 02:41:18;;;;;;;17.08;10.18;;;;;;;;;;5054627;28;20528;-75
2022/11/28 02:44:03;;;;;;;20.55;13.70;;;;;;;;;;5055772;28;20079;-76
2022/11/28 02:46:35;;;;;;;11.38;8.80;;;;;;;;;;5055819;28;20044;-74
2022/11/28 02:49:02;;;;;;;10.63;7.88;;;;;;;;;;5054074;28;20059;-75
2022/11/28 02:51:28;;;;;;;9.35;8.43;;;;;;;;;;5055065;28;20036;-76
2022/11/28 02:53:54;;;;;;;19.58;13.07;;;;;;;;;;5055291;28;20055;-75
2022/11/28 02:56:21;;;;;;;35.08;20.45;;;;;;;;;;5053645;28;20064;-75
2022/11/28 02:58:47;;;;;;;17.45;13.07;;;;;;;;;;5001046;28;20433;-74
2022/11/28 03:01:21;;;;;;;19.35;11.63;;;;;;;;;;5068054;28;20064;-75
2022/11/28 03:03:51;;;;;;;22.55;13.18;;;;;;;;;;5074088;28;20591;-74
2022/11/28 03:06:18;;;;;;;12.13;8.63;;;;;;;;;;5056309;28;20515;-75
2022/11/28 03:09:03;;;;;;;8.75;7.22;;;;;;;;;;5071329;28;20479;-75
2022/11/28 03:11:47;;;;;;;10.98;8.98;;;;;;;;;;5071985;28;20073;-74
2022/11/28 03:14:19;;;;;;;28.80;15.40;;;;;;;;;;5072856;28;20028;-73
2022/11/28 03:16:49;;;;;;;14.57;10.30;;;;;;;;;;5056732;28;20043;-75
2022/11/28 03:19:20;;;;;;;30.42;19.23;;;;;;;;;;5074571;28;20037;-74
2022/11/28 03:21:49;;;;;;;24.50;16.85;;;;;;;;;;5073965;28;20033;-74
2022/11/28 03:24:17;;;;;;;12.02;10.65;;;;;;;;;;5057201;28;20029;-74
2022/11/28 03:26:44;;;;;;;16.92;11.85;;;;;;;;;;5057564;28;20104;-74
2022/11/28 03:29:19;;;;;;;30.88;19.45;;;;;;;;;;5057464;28;20036;-73
2022/11/28 03:31:50;;;;;;;16.23;10.10;;;;;;;;;;5057287;28;20040;-74
2022/11/28 03:34:16;;;;;;;22.02;12.60;;;;;;;;;;5056979;28;20039;-74
2022/11/28 03:36:44;;;;;;;15.75;11.02;;;;;;;;;;5041645;28;20041;-74
2022/11/28 03:39:10;;;;;;;26.13;15.07;;;;;;;;;;5062098;28;20036;-74
2022/11/28 03:41:41;;;;;;;19.55;9.73;;;;;;;;;;5058770;28;20948;-74
2022/11/28 03:44:08;;;;;;;23.25;13.15;;;;;;;;;;5063326;28;20079;-74
2022/11/28 03:46:37;;;;;;;22.10;12.27;;;;;;;;;;5064793;28;20035;-74
2022/11/28 03:49:03;;;;;;;8.20;7.15;;;;;;;;;;5079809;28;20041;-73
2022/11/28 03:51:36;;;;;;;15.65;12.07;;;;;;;;;;5076162;28;20459;-74
2022/11/28 03:54:07;;;;;;;13.98;9.75;;;;;;;;;;5077407;28;20431;-74
2022/11/28 03:56:36;;;;;;;20.60;14.35;;;;;;;;;;5038018;28;20036;-72
2022/11/28 03:59:25;;;;;;;10.60;9.38;;;;;;;;;;5072633;28;20028;-74
2022/11/28 04:01:52;;;;;;;9.75;7.57;;;;;;;;;;5061423;28;20468;-74
2022/11/28 04:04:22;;;;;;;21.35;14.52;;;;;;;;;;5053528;28;20515;-74
2022/11/28 04:07:00;;;;;;;16.52;11.27;;;;;;;;;;5070589;28;20067;-74
2022/11/28 04:09:37;;;;;;;18.25;10.98;;;;;;;;;;5071135;28;20045;-73
2022/11/28 04:12:08;;;;;;;15.40;12.05;;;;;;;;;;5053465;28;20047;-74
2022/11/28 04:14:36;;;;;;;10.60;9.10;;;;;;;;;;5036357;28;20028;-74
2022/11/28 04:17:05;;;;;;;15.35;10.57;;;;;;;;;;5051358;28;20531;-73
2022/11/28 04:19:31;;;;;;;15.02;11.00;;;;;;;;;;5070134;28;20058;-74
2022/11/28 04:22:08;;;;;;;15.82;10.38;;;;;;;;;;5052763;28;20488;-74
2022/11/28 04:24:37;;;;;;;9.77;7.80;;;;;;;;;;5052752;28;20568;-73
2022/11/28 04:27:04;;;;;;;7.25;6.60;;;;;;;;;;5052257;28;20036;-74
2022/11/28 04:29:34;;;;;;;14.40;8.82;;;;;;;;;;5051933;28;20123;-74
2022/11/28 04:32:00;;;;;;;16.35;11.77;;;;;;;;;;5051269;28;20135;-73
2022/11/28 04:34:27;;;;;;;9.50;8.52;;;;;;;;;;5068774;28;20036;-73
2022/11/28 04:36:53;;;;;;;10.50;9.23;;;;;;;;;;5051042;28;20044;-74
2022/11/28 04:39:20;;;;;;;6.80;6.10;;;;;;;;;;5034717;28;20060;-74
2022/11/28 04:41:56;;;;;;;8.93;7.88;;;;;;;;;;5068917;28;20056;-74
2022/11/28 04:44:40;;;;;;;7.05;6.20;;;;;;;;;;5050684;28;20074;-74
2022/11/28 04:47:06;;;;;;;7.20;6.50;;;;;;;;;;5057064;28;20067;-74
2022/11/28 04:49:32;;;;;;;16.23;14.50;;;;;;;;;;5061310;28;20040;-74
2022/11/28 04:52:08;;;;;;;13.45;9.68;;;;;;;;;;5050572;28;20075;-74
2022/11/28 04:54:37;;;;;;;15.90;10.52;;;;;;;;;;5048677;28;20090;-74
2022/11/28 04:57:08;;;;;;;11.80;9.77;;;;;;;;;;5049049;28;20044;-74
2022/11/28 04:59:34;;;;;;;11.55;8.57;;;;;;;;;;5032839;28;20083;-73
2022/11/28 05:02:01;;;;;;;8.57;7.78;;;;;;;;;;5069934;28;20462;-74
2022/11/28 05:04:27;;;;;;;16.67;10.27;;;;;;;;;;5051772;28;20056;-73
2022/11/28 05:07:00;;;;;;;10.45;9.02;;;;;;;;;;5051986;28;20489;-74
2022/11/28 05:09:25;;;;;;;8.27;7.53;;;;;;;;;;5069484;28;20542;-74
2022/11/28 05:11:51;;;;;;;11.70;7.97;;;;;;;;;;5069795;28;20108;-73
2022/11/28 05:14:18;;;;;;;14.68;9.77;;;;;;;;;;5051887;28;20123;-73
2022/11/28 05:16:44;;;;;;;7.07;5.90;;;;;;;;;;5051845;28;20048;-74
2022/11/28 05:19:10;;;;;;;8.35;7.55;;;;;;;;;;5051889;28;20036;-73
2022/11/28 05:21:36;;;;;;;11.45;10.10;;;;;;;;;;5069441;28;20040;-73
2022/11/28 05:24:02;;;;;;;9.43;8.52;;;;;;;;;;4998369;28;20493;-74
2022/11/28 05:26:31;;;;;;;24.13;7.78;;;;;;;;;;5031652;28;20052;-73
2022/11/28 05:28:57;;;;;;;6.45;5.60;;;;;;;;;;5049713;28;20036;-74
2022/11/28 05:31:23;;;;;;;10.30;8.85;;;;;;;;;;5049791;28;20037;-74
2022/11/28 05:33:48;;;;;;;7.85;6.93;;;;;;;;;;5015183;28;20541;-74
2022/11/28 05:36:15;;;;;;;12.05;8.40;;;;;;;;;;5049522;28;20028;-74
2022/11/28 05:38:41;;;;;;;7.47;6.68;;;;;;;;;;5031480;28;20520;-74
2022/11/28 05:41:07;;;;;;;3.90;3.50;;;;;;;;;;5015151;28;20043;-72
2022/11/28 05:43:33;;;;;;;8.45;7.43;;;;;;;;;;5048950;28;20420;-74
2022/11/28 05:45:59;;;;;;;5.63;5.15;;;;;;;;;;5031432;28;20741;-73
2022/11/28 05:48:24;;;;;;;5.00;4.50;;;;;;;;;;5054118;28;20033;-74
2022/11/28 05:50:51;;;;;;;7.35;5.72;;;;;;;;;;5069407;28;20039;-74
2022/11/28 05:53:17;;;;;;;7.00;6.32;;;;;;;;;;5051503;28;20572;-74
2022/11/28 05:55:43;;;;;;;11.43;8.95;;;;;;;;;;5051128;28;20481;-75
2022/11/28 05:58:09;;;;;;;7.90;7.20;;;;;;;;;;5051048;28;20036;-75
2022/11/28 06:00:35;;;;;;;8.32;7.65;;;;;;;;;;5048922;28;20020;-74
2022/11/28 06:03:01;;;;;;;6.50;5.93;;;;;;;;;;5034525;28;20110;-74
2022/11/28 06:05:27;;;;;;;9.10;7.53;;;;;;;;;;5032956;28;20089;-75
2022/11/28 06:07:53;;;;;;;6.95;4.88;;;;;;;;;;5049235;28;20036;-74
2022/11/28 06:10:21;;;;;;;8.60;7.45;;;;;;;;;;5061995;28;20116;-74
2022/11/28 06:12:47;;;;;;;6.75;6.18;;;;;;;;;;5061498;28;20047;-75
2022/11/28 06:15:13;;;;;;;6.75;5.38;;;;;;;;;;5058613;28;20036;-75
2022/11/28 06:17:39;;;;;;;8.70;8.00;;;;;;;;;;5063829;28;20032;-75
2022/11/28 06:20:06;;;;;;;12.23;10.00;;;;;;;;;;5050070;28;20047;-76
2022/11/28 06:22:32;;;;;;;9.93;8.95;;;;;;;;;;5029231;28;20135;-75
2022/11/28 06:24:58;;;;;;;9.70;8.75;;;;;;;;;;5063660;28;20496;-75
2022/11/28 06:27:24;;;;;;;13.93;8.15;;;;;;;;;;5064204;28;20036;-74
2022/11/28 06:29:50;;;;;;;11.60;9.68;;;;;;;;;;5066384;28;20067;-75
2022/11/28 06:32:16;;;;;;;16.58;13.38;;;;;;;;;;5064104;28;20217;-76
2022/11/28 06:34:42;;;;;;;23.85;16.73;;;;;;;;;;5067221;28;20074;-75
2022/11/28 06:43:20;;;;;;;21.02;12.82;;;;;;;;;;5037271;28;20059;-75
2022/11/28 06:45:46;;;;;;;9.10;8.18;;;;;;;;;;4995420;28;20539;-76
2022/11/28 06:48:12;;;;;;;13.02;10.35;;;;;;;;;;5014694;28;20036;-76
2022/11/28 06:50:41;;;;;;;14.40;9.88;;;;;;;;;;5033707;28;20509;-76
2022/11/28 06:53:30;;;;;;;7.35;5.72;;;;;;;;;;5020903;28;20155;-75
2022/11/28 06:56:21;;;;;;;7.47;5.97;;;;;;;;;;5037185;28;20448;-76
2022/11/28 06:58:54;;;;;;;17.13;12.63;;;;;;;;;;5032559;28;20070;-75
2022/11/28 07:01:36;;;;;;;6.97;6.28;;;;;;;;;;5015065;28;20071;-75
2022/11/28 07:04:02;;;;;;;15.55;8.85;;;;;;;;;;5030543;28;20032;-75
2022/11/28 07:06:28;;;;;;;9.60;8.65;;;;;;;;;;5030281;28;20046;-75
2022/11/28 07:08:58;;;;;;;12.88;9.45;;;;;;;;;;5031689;28;20025;-75
2022/11/28 07:11:28;;;;;;;9.90;7.90;;;;;;;;;;5032039;28;20048;-75
2022/11/28 07:13:55;;;;;;;13.88;9.75;;;;;;;;;;5024501;28;20056;-76
2022/11/28 07:16:25;;;;;;;12.80;8.40;;;;;;;;;;5015975;28;20463;-75
2022/11/28 07:18:51;;;;;;;12.68;9.52;;;;;;;;;;5011720;28;20079;-75
2022/11/28 07:21:17;;;;;;;9.82;8.20;;;;;;;;;;4998527;28;20493;-73
2022/11/28 07:23:44;;;;;;;17.58;12.50;;;;;;;;;;5033097;28;20036;-76
2022/11/28 07:26:12;;;;;;;17.25;13.60;;;;;;;;;;5000397;28;20075;-75
2022/11/28 07:28:48;;;;;;;7.60;7.03;;;;;;;;;;5032652;28;20055;-74
2022/11/28 07:31:16;;;;;;;7.22;6.00;;;;;;;;;;5061443;28;20119;-74
2022/11/28 07:33:43;;;;;;;9.13;8.13;;;;;;;;;;5052877;28;20123;-74
2022/11/28 07:36:10;;;;;;;22.10;13.63;;;;;;;;;;5051333;28;20123;-75
2022/11/28 07:38:36;;;;;;;9.13;7.72;;;;;;;;;;5069294;28;20028;-74
2022/11/28 07:41:03;;;;;;;12.38;8.70;;;;;;;;;;5069464;28;20093;-74
2022/11/28 07:43:29;;;;;;;15.60;9.88;;;;;;;;;;5068953;28;20467;-74
2022/11/28 07:45:55;;;;;;;7.68;6.47;;;;;;;;;;5069932;28;20036;-74
2022/11/28 07:48:21;;;;;;;17.92;12.82;;;;;;;;;;5034949;28;20389;-74
2022/11/28 07:50:47;;;;;;;13.68;7.95;;;;;;;;;;5051345;28;20388;-74
2022/11/28 07:53:13;;;;;;;19.45;10.77;;;;;;;;;;5069599;28;20051;-74
2022/11/28 07:55:40;;;;;;;10.45;7.68;;;;;;;;;;5051741;28;20035;-74
2022/11/28 07:58:06;;;;;;;12.73;9.82;;;;;;;;;;5068926;28;20048;-74
2022/11/28 08:00:32;;;;;;;12.15;9.32;;;;;;;;;;5070850;28;20029;-73
2022/11/28 08:02:58;;;;;;;11.30;7.65;;;;;;;;;;5071157;28;20045;-74
2022/11/28 08:05:24;;;;;;;11.32;10.07;;;;;;;;;;5071173;28;20029;-74
2022/11/28 08:07:50;;;;;;;9.50;8.52;;;;;;;;;;5070970;28;20028;-74
2022/11/28 08:10:16;;;;;;;14.88;11.13;;;;;;;;;;5071176;28;20458;-74
2022/11/28 08:12:42;;;;;;;11.82;10.25;;;;;;;;;;5052921;28;20088;-74
2022/11/28 08:15:08;;;;;;;10.93;9.30;;;;;;;;;;5070922;28;20028;-74
2022/11/28 08:17:34;;;;;;;19.15;12.90;;;;;;;;;;5070886;28;20082;-75
2022/11/28 08:20:01;;;;;;;17.58;8.80;;;;;;;;;;5053077;28;20451;-74
2022/11/28 08:22:27;;;;;;;14.82;10.27;;;;;;;;;;5036400;28;20040;-75
2022/11/28 08:24:53;;;;;;;11.57;8.48;;;;;;;;;;5069361;28;20546;-73
2022/11/28 08:27:19;;;;;;;15.15;9.55;;;;;;;;;;5070984;28;20036;-74
2022/11/28 08:29:44;;;;;;;12.73;9.45;;;;;;;;;;5070776;28;20106;-74
2022/11/28 08:32:10;;;;;;;15.77;12.20;;;;;;;;;;5051416;28;20083;-74
2022/11/28 08:34:37;;;;;;;8.00;7.22;;;;;;;;;;5052351;28;20028;-74
2022/11/28 08:37:03;;;;;;;10.68;9.63;;;;;;;;;;5052862;28;20040;-74
2022/11/28 08:39:29;;;;;;;12.30;8.60;;;;;;;;;;5052832;28;20042;-74
2022/11/28 08:41:56;;;;;;;8.23;7.25;;;;;;;;;;5070314;28;20131;-74
2022/11/28 08:44:22;;;;;;;5.68;5.15;;;;;;;;;;5036025;28;20052;-74
2022/11/28 08:46:48;;;;;;;8.20;7.32;;;;;;;;;;5070518;28;20350;-74
2022/11/28 08:49:14;;;;;;;8.65;7.85;;;;;;;;;;5035998;28;20040;-74
2022/11/28 08:51:41;;;;;;;10.40;9.05;;;;;;;;;;5051595;28;20043;-74
2022/11/28 08:54:06;;;;;;;7.97;6.22;;;;;;;;;;5068650;28;20493;-74
2022/11/28 08:56:32;;;;;;;10.25;7.13;;;;;;;;;;5067417;28;20044;-74
2022/11/28 08:58:58;;;;;;;6.32;4.65;;;;;;;;;;5052194;28;20048;-73
2022/11/28 09:01:25;;;;;;;6.60;4.72;;;;;;;;;;5070619;28;20037;-74
2022/11/28 09:03:51;;;;;;;7.40;5.22;;;;;;;;;;5048507;28;20106;-74
2022/11/28 09:06:19;;;;;;;7.00;5.50;;;;;;;;;;5032447;28;20025;-74
2022/11/28 09:08:45;;;;;;;5.70;5.20;;;;;;;;;;5015987;28;20603;-75
2022/11/28 09:11:12;;;;;;;9.85;6.88;;;;;;;;;;5048655;28;20036;-74
2022/11/28 09:13:39;;;;;;;5.78;4.70;;;;;;;;;;5031871;28;20114;-74
2022/11/28 09:16:05;;;;;;;5.55;5.13;;;;;;;;;;5032200;28;20091;-75
2022/11/28 09:18:31;;;;;;;7.47;6.75;;;;;;;;;;5050053;28;20563;-74
2022/11/28 09:21:01;;;;;;;6.82;6.20;;;;;;;;;;5048312;28;20068;-74
2022/11/28 09:23:28;;;;;;;6.55;5.70;;;;;;;;;;5049812;28;20131;-74
2022/11/28 09:25:54;;;;;;;6.85;6.18;;;;;;;;;;5031754;28;20813;-74
2022/11/28 09:28:20;;;;;;;12.07;7.10;;;;;;;;;;5049851;28;20037;-74
2022/11/28 09:30:46;;;;;;;6.70;6.10;;;;;;;;;;5048962;28;20532;-74
2022/11/28 09:33:12;;;;;;;5.53;5.05;;;;;;;;;;5049552;28;20467;-74
2022/11/28 09:35:39;;;;;;;7.47;6.25;;;;;;;;;;5034433;28;20043;-74
2022/11/28 09:38:05;;;;;;;7.43;5.75;;;;;;;;;;5052193;28;20132;-74
2022/11/28 09:40:38;;;;;;;8.05;7.35;;;;;;;;;;5069993;28;20075;-75
2022/11/28 09:43:26;;;;;;;7.00;6.38;;;;;;;;;;5050963;28;20056;-73
2022/11/28 09:45:52;;;;;;;7.68;6.95;;;;;;;;;;5051401;28;20036;-74
2022/11/28 09:48:38;;;;;;;7.78;5.03;;;;;;;;;;5070012;28;20037;-74
2022/11/28 09:51:23;;;;;;;5.60;5.10;;;;;;;;;;5050242;28;20036;-74
2022/11/28 09:54:05;;;;;;;4.78;4.30;;;;;;;;;;5052135;28;20036;-74
2022/11/28 09:56:31;;;;;;;6.63;6.00;;;;;;;;;;5058305;28;20033;-75
2022/11/28 09:58:59;;;;;;;5.82;5.43;;;;;;;;;;5077396;28;20036;-74
2022/11/28 10:01:28;;;;;;;4.90;4.50;;;;;;;;;;5060588;28;20040;-74
2022/11/28 10:04:01;;;;;;;5.43;4.97;;;;;;;;;;5061484;28;20040;-73
2022/11/28 10:06:30;;;;;;;5.68;5.22;;;;;;;;;;5062024;28;20543;-74
2022/11/28 10:09:19;;;;;;;7.15;5.88;;;;;;;;;;5061902;28;20040;-74
2022/11/28 10:12:04;;;;;;;6.15;5.57;;;;;;;;;;5071138;28;20048;-74
2022/11/28 10:14:48;;;;;;;6.85;6.35;;;;;;;;;;5059036;28;20500;-73
2022/11/28 10:17:34;;;;;;;4.65;4.35;;;;;;;;;;5076973;28;20074;-74
2022/11/28 10:20:02;;;;;;;7.15;6.22;;;;;;;;;;5076774;28;20071;-74
2022/11/28 10:22:45;;;;;;;6.40;5.90;;;;;;;;;;5061049;28;20516;-74
2022/11/28 10:25:16;;;;;;;4.88;4.47;;;;;;;;;;5043340;28;20046;-74
2022/11/28 10:27:42;;;;;;;3.50;3.30;;;;;;;;;;5059149;28;20063;-73
2022/11/28 10:30:22;;;;;;;8.35;4.80;;;;;;;;;;5059171;28;20063;-75
2022/11/28 10:32:53;;;;;;;5.05;3.65;;;;;;;;;;5075676;28;20098;-75
2022/11/28 10:35:31;;;;;;;6.80;6.05;;;;;;;;;;5059879;28;20052;-75
2022/11/28 10:37:57;;;;;;;6.22;3.95;;;;;;;;;;5063439;28;20028;-75
2022/11/28 10:40:42;;;;;;;5.13;4.70;;;;;;;;;;5064705;28;20039;-75
2022/11/28 10:43:23;;;;;;;4.13;3.83;;;;;;;;;;5045055;28;20070;-75
2022/11/28 10:46:10;;;;;;;4.78;4.40;;;;;;;;;;5060948;28;20526;-74
2022/11/28 10:48:45;;;;;;;5.75;4.03;;;;;;;;;;5023578;28;20032;-74
2022/11/28 10:51:14;;;;;;;7.18;6.57;;;;;;;;;;5062044;28;20048;-75
2022/11/28 10:53:44;;;;;;;4.53;4.22;;;;;;;;;;5077778;28;20024;-77
2022/11/28 10:56:28;;;;;;;4.85;4.55;;;;;;;;;;5061238;28;20151;-75
2022/11/28 10:59:02;;;;;;;6.45;5.68;;;;;;;;;;5076100;28;20591;-75
2022/11/28 11:01:30;;;;;;;5.68;5.28;;;;;;;;;;5057272;28;20123;-75
2022/11/28 11:03:56;;;;;;;6.25;5.75;;;;;;;;;;5056128;28;20028;-75
2022/11/28 11:06:24;;;;;;;5.97;5.55;;;;;;;;;;5056301;28;20028;-75
2022/11/28 11:08:50;;;;;;;6.55;5.95;;;;;;;;;;5055761;28;20039;-74
2022/11/28 11:11:26;;;;;;;6.28;5.85;;;;;;;;;;5056564;28;20385;-76
2022/11/28 11:13:54;;;;;;;7.38;6.68;;;;;;;;;;5055007;28;20540;-75
2022/11/28 11:16:20;;;;;;;6.65;5.63;;;;;;;;;;5055425;28;20044;-75
2022/11/28 11:18:47;;;;;;;6.65;6.05;;;;;;;;;;5073290;28;20102;-75
2022/11/28 11:21:17;;;;;;;5.50;5.05;;;;;;;;;;5034416;28;20123;-75
2022/11/28 11:23:44;;;;;;;7.10;6.45;;;;;;;;;;5036747;28;20094;-75
2022/11/28 11:26:23;;;;;;;6.65;5.18;;;;;;;;;;5063183;28;20030;-76
2022/11/28 11:28:52;;;;;;;6.93;4.95;;;;;;;;;;5071840;28;20043;-78
2022/11/28 11:31:22;;;;;;;5.85;4.88;;;;;;;;;;5037052;28;20060;-77
2022/11/28 11:33:50;;;;;;;3.95;3.72;;;;;;;;;;5069031;28;20051;-74
2022/11/28 11:36:23;;;;;;;5.70;5.13;;;;;;;;;;5051949;28;20106;-77
2022/11/28 11:38:49;;;;;;;4.15;3.83;;;;;;;;;;5069713;28;20079;-76
2022/11/28 11:41:33;;;;;;;5.18;4.47;;;;;;;;;;5053307;28;20117;-77
2022/11/28 11:44:15;;;;;;;5.80;5.30;;;;;;;;;;5036722;28;20059;-78
2022/11/28 11:46:50;;;;;;;4.93;4.47;;;;;;;;;;5071469;28;20039;-77
2022/11/28 11:49:31;;;;;;;4.10;3.90;;;;;;;;;;5071626;28;20064;-77
2022/11/28 11:51:58;;;;;;;9.98;6.80;;;;;;;;;;5071568;28;20033;-78
2022/11/28 11:54:24;;;;;;;5.65;5.15;;;;;;;;;;5071997;28;20033;-77
2022/11/28 11:56:51;;;;;;;7.57;6.50;;;;;;;;;;5053291;28;20036;-77
2022/11/28 11:59:28;;;;;;;5.47;4.97;;;;;;;;;;5053397;28;20381;-77
2022/11/28 12:02:30;;;;;;;3.65;3.35;;;;;;;;;;5069708;28;20061;-76
2022/11/28 12:05:01;;;;;;;3.58;3.28;;;;;;;;;;4968157;28;20049;-78
2022/11/28 12:07:31;;;;;;;7.88;6.65;;;;;;;;;;5045997;28;20040;-79
2022/11/28 12:09:57;;;;;;;8.80;7.72;;;;;;;;;;5052878;28;20036;-78
2022/11/28 12:12:23;;;;;;;6.28;5.38;;;;;;;;;;5036784;28;20044;-78
2022/11/28 12:14:49;;;;;;;6.07;5.47;;;;;;;;;;5052699;28;20040;-77
2022/11/28 12:17:35;;;;;;;8.07;7.28;;;;;;;;;;5053239;28;20037;-77
2022/11/28 12:20:11;;;;;;;5.30;4.80;;;;;;;;;;5070569;28;20629;-75
2022/11/28 12:22:37;;;;;;;4.90;4.50;;;;;;;;;;5069342;28;20046;-76
2022/11/28 12:25:08;;;;;;;4.50;4.10;;;;;;;;;;5070187;28;20029;-76
2022/11/28 12:27:34;;;;;;;6.65;5.90;;;;;;;;;;5052462;28;20071;-76
2022/11/28 12:30:00;;;;;;;5.97;5.50;;;;;;;;;;5052828;28;20036;-76
2022/11/28 12:32:48;;;;;;;5.88;5.38;;;;;;;;;;5070795;28;20063;-76
2022/11/28 12:35:48;;;;;;;7.80;7.13;;;;;;;;;;5074671;28;20589;-78
2022/11/28 12:38:37;;;;;;;5.28;4.88;;;;;;;;;;5052677;28;20028;-76
2022/11/28 12:41:22;;;;;;;5.25;4.75;;;;;;;;;;5070124;28;20036;-76
2022/11/28 12:44:42;;;;;;;6.85;6.00;;;;;;;;;;5046894;28;20051;-76
2022/11/28 12:47:28;;;;;;;7.18;6.47;;;;;;;;;;5049183;28;20052;-76
2022/11/28 12:49:54;;;;;;;7.78;6.25;;;;;;;;;;5052440;28;20039;-76
2022/11/28 12:52:24;;;;;;;6.20;5.60;;;;;;;;;;5069979;28;20047;-77
2022/11/28 12:55:10;;;;;;;4.30;4.00;;;;;;;;;;5068675;28;20515;-76
2022/11/28 12:57:42;;;;;;;5.72;5.00;;;;;;;;;;5036418;28;20072;-76
2022/11/28 13:00:10;;;;;;;5.35;4.85;;;;;;;;;;5032020;28;20067;-75
2022/11/28 13:02:41;;;;;;;6.78;6.20;;;;;;;;;;5049738;28;20044;-76
2022/11/28 13:05:09;;;;;;;5.40;4.88;;;;;;;;;;5048557;28;20024;-76
2022/11/28 13:07:46;;;;;;;4.22;3.92;;;;;;;;;;5057600;28;20040;-76
2022/11/28 13:10:15;;;;;;;3.85;3.55;;;;;;;;;;5035304;28;20032;-77
2022/11/28 13:12:59;;;;;;;5.65;3.47;;;;;;;;;;5070177;28;20124;-77
2022/11/28 13:15:34;;;;;;;5.07;4.03;;;;;;;;;;5070064;28;20040;-77
2022/11/28 13:18:12;;;;;;;3.83;3.60;;;;;;;;;;5068616;28;20119;-76
2022/11/28 13:20:41;;;;;;;4.55;4.15;;;;;;;;;;5060892;28;20089;-77
2022/11/28 13:23:12;;;;;;;4.35;4.05;;;;;;;;;;5089203;28;20048;-75
2022/11/28 13:25:40;;;;;;;6.13;4.63;;;;;;;;;;5047753;28;20040;-75
2022/11/28 13:28:07;;;;;;;4.03;3.70;;;;;;;;;;5068618;28;20032;-73
2022/11/28 13:30:53;;;;;;;4.82;4.47;;;;;;;;;;5069470;28;20536;-75
2022/11/28 13:33:28;;;;;;;4.53;4.22;;;;;;;;;;5068386;28;20036;-76
2022/11/28 13:35:54;;;;;;;5.60;4.28;;;;;;;;;;5068589;28;20119;-74
2022/11/28 13:38:23;;;;;;;5.43;5.03;;;;;;;;;;5050457;28;20139;-76
2022/11/28 13:40:50;;;;;;;5.70;5.30;;;;;;;;;;5066277;28;20045;-75
2022/11/28 13:43:19;;;;;;;3.60;3.35;;;;;;;;;;5049081;28;20051;-74
2022/11/28 13:45:45;;;;;;;6.32;5.10;;;;;;;;;;5068178;28;20597;-75
2022/11/28 13:48:31;;;;;;;6.25;5.65;;;;;;;;;;5031427;28;20056;-75
2022/11/28 13:51:00;;;;;;;4.95;4.45;;;;;;;;;;5046232;28;20032;-75
2022/11/28 13:53:26;;;;;;;4.28;3.88;;;;;;;;;;5031283;28;20052;-75
2022/11/28 13:56:12;;;;;;;3.40;3.17;;;;;;;;;;5033175;28;20038;-75
2022/11/28 13:58:41;;;;;;;3.35;3.15;;;;;;;;;;5040432;28;20037;-75
2022/11/28 14:01:16;;;;;;;6.13;5.57;;;;;;;;;;5027606;28;20032;-76
2022/11/28 14:03:43;;;;;;;3.88;3.60;;;;;;;;;;5014123;28;20166;-74
2022/11/28 14:06:09;;;;;;;6.47;5.85;;;;;;;;;;5068645;28;20039;-75
2022/11/28 14:08:38;;;;;;;5.88;5.28;;;;;;;;;;5018515;28;20036;-75
2022/11/28 14:11:24;;;;;;;4.25;3.95;;;;;;;;;;5060223;28;20048;-76
2022/11/28 14:13:56;;;;;;;5.30;4.90;;;;;;;;;;5030108;28;20033;-74
2022/11/28 14:16:31;;;;;;;5.82;5.30;;;;;;;;;;5067897;28;20064;-74
2022/11/28 14:19:16;;;;;;;6.72;6.18;;;;;;;;;;5067493;28;20720;-75
2022/11/28 14:21:48;;;;;;;7.20;6.60;;;;;;;;;;5080518;28;20034;-75
2022/11/28 14:24:21;;;;;;;5.60;5.10;;;;;;;;;;5050211;28;20039;-75
2022/11/28 14:26:50;;;;;;;4.93;4.53;;;;;;;;;;5067383;28;20401;-76
2022/11/28 14:29:18;;;;;;;9.27;8.48;;;;;;;;;;5033264;28;20056;-76
2022/11/28 14:31:45;;;;;;;7.18;4.70;;;;;;;;;;5049706;28;20046;-74
2022/11/28 14:34:37;;;;;;;6.30;5.80;;;;;;;;;;5067825;28;20119;-75
2022/11/28 14:37:20;;;;;;;8.27;7.57;;;;;;;;;;5057196;28;20051;-74
2022/11/28 14:39:47;;;;;;;12.02;9.75;;;;;;;;;;5032888;28;20029;-75
2022/11/28 14:42:13;;;;;;;7.65;6.90;;;;;;;;;;5048953;28;20139;-74
2022/11/28 14:44:53;;;;;;;5.53;5.03;;;;;;;;;;5049540;28;20052;-74
2022/11/28 14:47:30;;;;;;;7.15;6.18;;;;;;;;;;5061388;28;20118;-74
2022/11/28 14:50:06;;;;;;;7.97;6.72;;;;;;;;;;5048384;28;20033;-74
2022/11/28 14:52:34;;;;;;;7.05;6.45;;;;;;;;;;5049896;28;20044;-74
2022/11/28 14:55:13;;;;;;;5.20;4.78;;;;;;;;;;5069228;28;20504;-73
2022/11/28 14:57:52;;;;;;;4.60;3.55;;;;;;;;;;5069485;28;20040;-74
2022/11/28 15:00:26;;;;;;;5.10;4.70;;;;;;;;;;5055497;28;20048;-74
2022/11/28 15:02:55;;;;;;;5.13;4.75;;;;;;;;;;5066029;28;20083;-73